sensor_id;sensor_type;location;lat;lon;timestamp;P1;durP1;ratioP1;P2;durP2;ratioP2
16994;SDS011;8614;48.522;9.206;2023-05-07T00:02:06;5.83;;;4.53;;
16994;SDS011;8614;48.522;9.206;2023-05-07T00:04:33;5.00;;;4.33;;
16994;SDS011;8614;48.522;9.206;2023-05-07T00:07:02;4.67;;;4.13;;
16994;SDS011;8614;48.522;9.206;2023-05-07T00:09:30;6.50;;;4.40;;
16994;SDS011;8614;48.522;9.206;2023-05-07T00:11:57;5.60;;;4.03;;
16994;SDS011;8614;48.522;9.206;2023-05-07T00:14:24;4.97;;;4.47;;
16994;SDS011;8614;48.522;9.206;2023-05-07T00:16:51;4.80;;;4.30;;
16994;SDS011;8614;48.522;9.206;2023-05-07T00:19:18;4.70;;;4.30;;
16994;SDS011;8614;48.522;9.206;2023-05-07T00:21:45;8.33;;;6.63;;
16994;SDS011;8614;48.522;9.206;2023-05-07T00:24:12;8.00;;;6.43;;
16994;SDS011;8614;48.522;9.206;2023-05-07T00:26:40;8.40;;;7.70;;
16994;SDS011;8614;48.522;9.206;2023-05-07T00:29:06;8.70;;;7.87;;
16994;SDS011;8614;48.522;9.206;2023-05-07T00:31:33;7.93;;;7.13;;
16994;SDS011;8614;48.522;9.206;2023-05-07T00:34:00;8.57;;;7.83;;
16994;SDS011;8614;48.522;9.206;2023-05-07T00:36:27;8.37;;;7.77;;
16994;SDS011;8614;48.522;9.206;2023-05-07T00:38:54;9.00;;;8.20;;
16994;SDS011;8614;48.522;9.206;2023-05-07T00:41:22;8.40;;;7.70;;
16994;SDS011;8614;48.522;9.206;2023-05-07T00:43:51;8.20;;;7.60;;
16994;SDS011;8614;48.522;9.206;2023-05-07T00:46:18;8.83;;;7.93;;
16994;SDS011;8614;48.522;9.206;2023-05-07T00:48:47;8.30;;;7.60;;
16994;SDS011;8614;48.522;9.206;2023-05-07T00:51:15;8.07;;;7.47;;
16994;SDS011;8614;48.522;9.206;2023-05-07T00:53:43;7.90;;;7.30;;
16994;SDS011;8614;48.522;9.206;2023-05-07T00:56:10;8.00;;;7.40;;
16994;SDS011;8614;48.522;9.206;2023-05-07T00:58:37;7.70;;;7.10;;
16994;SDS011;8614;48.522;9.206;2023-05-07T01:01:06;8.03;;;7.33;;
16994;SDS011;8614;48.522;9.206;2023-05-07T01:03:33;8.30;;;7.60;;
16994;SDS011;8614;48.522;9.206;2023-05-07T01:06:00;7.60;;;7.00;;
16994;SDS011;8614;48.522;9.206;2023-05-07T01:08:28;6.97;;;6.43;;
16994;SDS011;8614;48.522;9.206;2023-05-07T01:10:56;7.00;;;6.40;;
16994;SDS011;8614;48.522;9.206;2023-05-07T01:13:24;6.77;;;6.17;;
16994;SDS011;8614;48.522;9.206;2023-05-07T01:15:51;7.80;;;7.10;;
16994;SDS011;8614;48.522;9.206;2023-05-07T01:18:19;8.13;;;7.43;;
16994;SDS011;8614;48.522;9.206;2023-05-07T01:20:47;7.40;;;6.80;;
16994;SDS011;8614;48.522;9.206;2023-05-07T01:23:15;8.23;;;7.40;;
16994;SDS011;8614;48.522;9.206;2023-05-07T01:25:42;8.23;;;7.53;;
16994;SDS011;8614;48.522;9.206;2023-05-07T01:28:10;8.87;;;8.07;;
16994;SDS011;8614;48.522;9.206;2023-05-07T01:30:39;8.20;;;7.50;;
16994;SDS011;8614;48.522;9.206;2023-05-07T01:33:09;8.73;;;8.03;;
16994;SDS011;8614;48.522;9.206;2023-05-07T01:35:40;8.13;;;7.43;;
16994;SDS011;8614;48.522;9.206;2023-05-07T01:38:09;8.53;;;7.87;;
16994;SDS011;8614;48.522;9.206;2023-05-07T01:40:38;8.70;;;8.10;;
16994;SDS011;8614;48.522;9.206;2023-05-07T01:43:06;8.30;;;7.60;;
16994;SDS011;8614;48.522;9.206;2023-05-07T01:45:35;8.07;;;7.37;;
16994;SDS011;8614;48.522;9.206;2023-05-07T01:48:02;8.20;;;7.40;;
16994;SDS011;8614;48.522;9.206;2023-05-07T01:50:30;8.53;;;7.83;;
16994;SDS011;8614;48.522;9.206;2023-05-07T01:52:58;8.27;;;7.57;;
16994;SDS011;8614;48.522;9.206;2023-05-07T01:55:25;8.87;;;8.17;;
16994;SDS011;8614;48.522;9.206;2023-05-07T01:57:53;8.77;;;8.07;;
16994;SDS011;8614;48.522;9.206;2023-05-07T02:00:20;9.23;;;8.43;;
16994;SDS011;8614;48.522;9.206;2023-05-07T02:02:47;8.47;;;7.70;;
16994;SDS011;8614;48.522;9.206;2023-05-07T02:05:27;8.63;;;8.00;;
16994;SDS011;8614;48.522;9.206;2023-05-07T02:08:10;8.40;;;7.70;;
16994;SDS011;8614;48.522;9.206;2023-05-07T02:10:37;8.70;;;8.00;;
16994;SDS011;8614;48.522;9.206;2023-05-07T02:13:07;8.33;;;7.63;;
16994;SDS011;8614;48.522;9.206;2023-05-07T02:15:34;7.97;;;7.37;;
16994;SDS011;8614;48.522;9.206;2023-05-07T02:18:02;9.13;;;8.20;;
16994;SDS011;8614;48.522;9.206;2023-05-07T02:20:31;9.00;;;8.10;;
16994;SDS011;8614;48.522;9.206;2023-05-07T02:22:58;8.27;;;7.57;;
16994;SDS011;8614;48.522;9.206;2023-05-07T02:25:28;7.20;;;6.60;;
16994;SDS011;8614;48.522;9.206;2023-05-07T02:27:55;7.00;;;6.30;;
16994;SDS011;8614;48.522;9.206;2023-05-07T02:30:33;8.53;;;7.83;;
16994;SDS011;8614;48.522;9.206;2023-05-07T02:33:00;8.97;;;8.27;;
16994;SDS011;8614;48.522;9.206;2023-05-07T02:35:27;9.30;;;8.50;;
16994;SDS011;8614;48.522;9.206;2023-05-07T02:37:54;8.90;;;8.20;;
16994;SDS011;8614;48.522;9.206;2023-05-07T02:40:23;8.73;;;8.13;;
16994;SDS011;8614;48.522;9.206;2023-05-07T02:42:50;9.20;;;8.30;;
16994;SDS011;8614;48.522;9.206;2023-05-07T02:45:17;9.47;;;8.77;;
16994;SDS011;8614;48.522;9.206;2023-05-07T02:47:46;9.33;;;8.60;;
16994;SDS011;8614;48.522;9.206;2023-05-07T02:50:13;8.53;;;7.83;;
16994;SDS011;8614;48.522;9.206;2023-05-07T02:52:40;7.83;;;7.23;;
16994;SDS011;8614;48.522;9.206;2023-05-07T02:55:07;7.80;;;7.20;;
16994;SDS011;8614;48.522;9.206;2023-05-07T02:57:34;6.23;;;5.73;;
16994;SDS011;8614;48.522;9.206;2023-05-07T03:00:09;6.33;;;5.73;;
16994;SDS011;8614;48.522;9.206;2023-05-07T03:02:39;5.83;;;5.30;;
16994;SDS011;8614;48.522;9.206;2023-05-07T03:05:08;6.87;;;6.27;;
16994;SDS011;8614;48.522;9.206;2023-05-07T03:07:34;6.57;;;5.90;;
16994;SDS011;8614;48.522;9.206;2023-05-07T03:10:01;6.37;;;5.87;;
16994;SDS011;8614;48.522;9.206;2023-05-07T03:12:29;5.43;;;4.60;;
16994;SDS011;8614;48.522;9.206;2023-05-07T03:14:57;6.20;;;5.60;;
16994;SDS011;8614;48.522;9.206;2023-05-07T03:17:24;5.90;;;5.40;;
16994;SDS011;8614;48.522;9.206;2023-05-07T03:19:50;6.30;;;5.80;;
16994;SDS011;8614;48.522;9.206;2023-05-07T03:22:19;7.03;;;6.33;;
16994;SDS011;8614;48.522;9.206;2023-05-07T03:24:45;8.07;;;7.27;;
16994;SDS011;8614;48.522;9.206;2023-05-07T03:27:12;7.87;;;7.13;;
16994;SDS011;8614;48.522;9.206;2023-05-07T03:29:39;6.60;;;6.00;;
16994;SDS011;8614;48.522;9.206;2023-05-07T03:32:06;6.30;;;5.70;;
16994;SDS011;8614;48.522;9.206;2023-05-07T03:34:34;6.87;;;5.77;;
16994;SDS011;8614;48.522;9.206;2023-05-07T03:37:00;5.80;;;5.20;;
16994;SDS011;8614;48.522;9.206;2023-05-07T03:39:29;6.20;;;5.60;;
16994;SDS011;8614;48.522;9.206;2023-05-07T03:41:57;6.13;;;5.53;;
16994;SDS011;8614;48.522;9.206;2023-05-07T03:44:24;6.40;;;5.80;;
16994;SDS011;8614;48.522;9.206;2023-05-07T03:46:51;7.00;;;6.30;;
16994;SDS011;8614;48.522;9.206;2023-05-07T03:49:18;7.23;;;5.77;;
16994;SDS011;8614;48.522;9.206;2023-05-07T03:51:45;6.07;;;5.30;;
16994;SDS011;8614;48.522;9.206;2023-05-07T03:54:12;6.50;;;5.90;;
16994;SDS011;8614;48.522;9.206;2023-05-07T03:56:44;6.37;;;5.77;;
16994;SDS011;8614;48.522;9.206;2023-05-07T03:59:11;6.47;;;5.97;;
16994;SDS011;8614;48.522;9.206;2023-05-07T04:01:40;6.97;;;6.00;;
16994;SDS011;8614;48.522;9.206;2023-05-07T04:04:07;6.60;;;6.00;;
16994;SDS011;8614;48.522;9.206;2023-05-07T04:06:35;6.90;;;6.30;;
16994;SDS011;8614;48.522;9.206;2023-05-07T04:09:02;10.00;;;6.23;;
16994;SDS011;8614;48.522;9.206;2023-05-07T04:11:30;6.50;;;5.90;;
16994;SDS011;8614;48.522;9.206;2023-05-07T04:13:58;6.57;;;5.97;;
16994;SDS011;8614;48.522;9.206;2023-05-07T04:16:25;6.97;;;6.33;;
16994;SDS011;8614;48.522;9.206;2023-05-07T04:18:52;6.90;;;6.20;;
16994;SDS011;8614;48.522;9.206;2023-05-07T04:21:19;6.83;;;6.10;;
16994;SDS011;8614;48.522;9.206;2023-05-07T04:23:48;6.63;;;6.03;;
16994;SDS011;8614;48.522;9.206;2023-05-07T04:26:15;6.17;;;5.67;;
16994;SDS011;8614;48.522;9.206;2023-05-07T04:28:44;6.60;;;6.00;;
16994;SDS011;8614;48.522;9.206;2023-05-07T04:31:13;6.90;;;6.20;;
16994;SDS011;8614;48.522;9.206;2023-05-07T04:33:40;5.70;;;5.07;;
16994;SDS011;8614;48.522;9.206;2023-05-07T04:36:10;5.40;;;4.90;;
16994;SDS011;8614;48.522;9.206;2023-05-07T04:38:51;4.67;;;4.23;;
16994;SDS011;8614;48.522;9.206;2023-05-07T04:41:19;5.70;;;5.10;;
16994;SDS011;8614;48.522;9.206;2023-05-07T04:43:46;6.40;;;5.20;;
16994;SDS011;8614;48.522;9.206;2023-05-07T04:46:15;5.27;;;4.77;;
16994;SDS011;8614;48.522;9.206;2023-05-07T04:48:43;6.47;;;5.00;;
16994;SDS011;8614;48.522;9.206;2023-05-07T04:51:10;6.13;;;4.70;;
16994;SDS011;8614;48.522;9.206;2023-05-07T04:53:37;6.20;;;4.87;;
16994;SDS011;8614;48.522;9.206;2023-05-07T04:56:04;7.03;;;4.80;;
16994;SDS011;8614;48.522;9.206;2023-05-07T04:58:38;5.50;;;5.00;;
16994;SDS011;8614;48.522;9.206;2023-05-07T05:01:05;6.43;;;4.37;;
16994;SDS011;8614;48.522;9.206;2023-05-07T05:03:33;5.30;;;4.80;;
16994;SDS011;8614;48.522;9.206;2023-05-07T05:06:00;5.23;;;4.57;;
16994;SDS011;8614;48.522;9.206;2023-05-07T05:08:31;5.20;;;4.70;;
16994;SDS011;8614;48.522;9.206;2023-05-07T05:11:00;5.60;;;4.90;;
16994;SDS011;8614;48.522;9.206;2023-05-07T05:13:27;5.20;;;4.70;;
16994;SDS011;8614;48.522;9.206;2023-05-07T05:15:55;5.20;;;4.70;;
16994;SDS011;8614;48.522;9.206;2023-05-07T05:18:23;7.20;;;4.93;;
16994;SDS011;8614;48.522;9.206;2023-05-07T05:20:52;6.37;;;4.80;;
16994;SDS011;8614;48.522;9.206;2023-05-07T05:23:19;5.47;;;4.63;;
16994;SDS011;8614;48.522;9.206;2023-05-07T05:25:46;6.57;;;4.23;;
16994;SDS011;8614;48.522;9.206;2023-05-07T05:28:13;5.07;;;4.60;;
16994;SDS011;8614;48.522;9.206;2023-05-07T05:30:40;6.07;;;4.37;;
16994;SDS011;8614;48.522;9.206;2023-05-07T05:33:08;5.43;;;4.60;;
16994;SDS011;8614;48.522;9.206;2023-05-07T05:35:35;6.23;;;4.37;;
16994;SDS011;8614;48.522;9.206;2023-05-07T05:38:05;6.20;;;4.53;;
16994;SDS011;8614;48.522;9.206;2023-05-07T05:40:33;5.63;;;4.10;;
16994;SDS011;8614;48.522;9.206;2023-05-07T05:43:00;4.40;;;3.70;;
16994;SDS011;8614;48.522;9.206;2023-05-07T05:45:27;6.07;;;4.20;;
16994;SDS011;8614;48.522;9.206;2023-05-07T05:47:55;4.27;;;3.83;;
16994;SDS011;8614;48.522;9.206;2023-05-07T05:50:22;4.30;;;3.90;;
16994;SDS011;8614;48.522;9.206;2023-05-07T05:52:51;4.40;;;4.00;;
16994;SDS011;8614;48.522;9.206;2023-05-07T05:55:20;4.30;;;3.90;;
16994;SDS011;8614;48.522;9.206;2023-05-07T05:57:48;5.30;;;3.90;;
16994;SDS011;8614;48.522;9.206;2023-05-07T06:00:15;6.77;;;3.77;;
16994;SDS011;8614;48.522;9.206;2023-05-07T06:02:45;6.73;;;3.70;;
16994;SDS011;8614;48.522;9.206;2023-05-07T06:05:18;5.33;;;4.10;;
16994;SDS011;8614;48.522;9.206;2023-05-07T06:07:48;6.30;;;3.90;;
16994;SDS011;8614;48.522;9.206;2023-05-07T06:10:15;4.73;;;4.07;;
16994;SDS011;8614;48.522;9.206;2023-05-07T06:12:44;4.90;;;3.97;;
16994;SDS011;8614;48.522;9.206;2023-05-07T06:15:11;3.90;;;3.60;;
16994;SDS011;8614;48.522;9.206;2023-05-07T06:17:39;4.10;;;3.70;;
16994;SDS011;8614;48.522;9.206;2023-05-07T06:20:09;5.37;;;4.27;;
16994;SDS011;8614;48.522;9.206;2023-05-07T06:22:38;4.40;;;4.00;;
16994;SDS011;8614;48.522;9.206;2023-05-07T06:25:05;4.70;;;4.30;;
16994;SDS011;8614;48.522;9.206;2023-05-07T06:27:33;4.83;;;3.70;;
16994;SDS011;8614;48.522;9.206;2023-05-07T06:30:01;4.40;;;3.80;;
16994;SDS011;8614;48.522;9.206;2023-05-07T06:32:28;4.20;;;3.70;;
16994;SDS011;8614;48.522;9.206;2023-05-07T06:34:55;4.80;;;3.60;;
16994;SDS011;8614;48.522;9.206;2023-05-07T06:37:22;7.83;;;4.00;;
16994;SDS011;8614;48.522;9.206;2023-05-07T06:39:56;3.50;;;3.20;;
16994;SDS011;8614;48.522;9.206;2023-05-07T06:42:23;4.03;;;3.63;;
16994;SDS011;8614;48.522;9.206;2023-05-07T06:44:56;4.17;;;3.17;;
16994;SDS011;8614;48.522;9.206;2023-05-07T06:47:24;6.97;;;3.90;;
16994;SDS011;8614;48.522;9.206;2023-05-07T06:49:53;4.30;;;3.70;;
16994;SDS011;8614;48.522;9.206;2023-05-07T06:52:23;5.37;;;3.70;;
16994;SDS011;8614;48.522;9.206;2023-05-07T06:54:52;3.90;;;3.50;;
16994;SDS011;8614;48.522;9.206;2023-05-07T06:57:21;3.70;;;3.40;;
16994;SDS011;8614;48.522;9.206;2023-05-07T06:59:47;4.93;;;3.77;;
16994;SDS011;8614;48.522;9.206;2023-05-07T07:02:15;5.17;;;3.70;;
16994;SDS011;8614;48.522;9.206;2023-05-07T07:04:43;4.30;;;3.90;;
16994;SDS011;8614;48.522;9.206;2023-05-07T07:07:10;5.63;;;4.00;;
16994;SDS011;8614;48.522;9.206;2023-05-07T07:09:38;4.20;;;3.80;;
16994;SDS011;8614;48.522;9.206;2023-05-07T07:12:06;4.37;;;3.97;;
16994;SDS011;8614;48.522;9.206;2023-05-07T07:14:36;4.10;;;3.70;;
16994;SDS011;8614;48.522;9.206;2023-05-07T07:17:03;3.90;;;3.60;;
16994;SDS011;8614;48.522;9.206;2023-05-07T07:19:31;4.13;;;3.77;;
16994;SDS011;8614;48.522;9.206;2023-05-07T07:22:00;4.87;;;3.87;;
16994;SDS011;8614;48.522;9.206;2023-05-07T07:24:27;5.37;;;3.70;;
16994;SDS011;8614;48.522;9.206;2023-05-07T07:26:58;4.90;;;3.40;;
16994;SDS011;8614;48.522;9.206;2023-05-07T07:29:26;4.03;;;3.23;;
16994;SDS011;8614;48.522;9.206;2023-05-07T07:31:53;4.37;;;3.60;;
16994;SDS011;8614;48.522;9.206;2023-05-07T07:34:20;3.60;;;3.30;;
16994;SDS011;8614;48.522;9.206;2023-05-07T07:36:48;4.30;;;3.27;;
16994;SDS011;8614;48.522;9.206;2023-05-07T07:39:18;3.93;;;3.20;;
16994;SDS011;8614;48.522;9.206;2023-05-07T07:41:48;3.60;;;3.30;;
16994;SDS011;8614;48.522;9.206;2023-05-07T07:44:17;5.20;;;3.27;;
16994;SDS011;8614;48.522;9.206;2023-05-07T07:46:48;3.93;;;3.30;;
16994;SDS011;8614;48.522;9.206;2023-05-07T07:49:15;4.07;;;3.40;;
16994;SDS011;8614;48.522;9.206;2023-05-07T07:51:43;3.70;;;3.00;;
16994;SDS011;8614;48.522;9.206;2023-05-07T07:54:11;3.40;;;3.10;;
16994;SDS011;8614;48.522;9.206;2023-05-07T07:56:40;3.53;;;3.23;;
16994;SDS011;8614;48.522;9.206;2023-05-07T07:59:08;4.00;;;3.30;;
16994;SDS011;8614;48.522;9.206;2023-05-07T08:01:38;4.40;;;3.47;;
16994;SDS011;8614;48.522;9.206;2023-05-07T08:04:04;4.87;;;3.73;;
16994;SDS011;8614;48.522;9.206;2023-05-07T08:06:34;4.67;;;3.70;;
16994;SDS011;8614;48.522;9.206;2023-05-07T08:09:02;5.30;;;4.10;;
16994;SDS011;8614;48.522;9.206;2023-05-07T08:11:29;4.70;;;4.30;;
16994;SDS011;8614;48.522;9.206;2023-05-07T08:13:58;6.40;;;5.90;;
16994;SDS011;8614;48.522;9.206;2023-05-07T08:16:25;6.33;;;4.43;;
16994;SDS011;8614;48.522;9.206;2023-05-07T08:18:53;6.50;;;4.37;;
16994;SDS011;8614;48.522;9.206;2023-05-07T08:21:20;3.77;;;3.40;;
16994;SDS011;8614;48.522;9.206;2023-05-07T08:23:47;5.70;;;4.97;;
16994;SDS011;8614;48.522;9.206;2023-05-07T08:26:14;3.30;;;3.00;;
16994;SDS011;8614;48.522;9.206;2023-05-07T08:28:42;7.20;;;3.37;;
16994;SDS011;8614;48.522;9.206;2023-05-07T08:31:10;5.33;;;4.83;;
16994;SDS011;8614;48.522;9.206;2023-05-07T08:33:39;6.20;;;5.70;;
16994;SDS011;8614;48.522;9.206;2023-05-07T08:36:06;6.23;;;5.60;;
16994;SDS011;8614;48.522;9.206;2023-05-07T08:38:34;5.60;;;5.10;;
16994;SDS011;8614;48.522;9.206;2023-05-07T08:41:01;4.27;;;3.90;;
16994;SDS011;8614;48.522;9.206;2023-05-07T08:43:30;5.53;;;3.87;;
16994;SDS011;8614;48.522;9.206;2023-05-07T08:45:59;4.73;;;4.33;;
16994;SDS011;8614;48.522;9.206;2023-05-07T08:48:32;5.20;;;3.60;;
16994;SDS011;8614;48.522;9.206;2023-05-07T08:51:06;4.20;;;3.23;;
16994;SDS011;8614;48.522;9.206;2023-05-07T08:53:34;4.07;;;3.67;;
16994;SDS011;8614;48.522;9.206;2023-05-07T08:56:02;4.40;;;4.00;;
16994;SDS011;8614;48.522;9.206;2023-05-07T08:58:30;4.07;;;3.63;;
16994;SDS011;8614;48.522;9.206;2023-05-07T09:00:57;3.83;;;3.50;;
16994;SDS011;8614;48.522;9.206;2023-05-07T09:03:26;3.87;;;3.47;;
16994;SDS011;8614;48.522;9.206;2023-05-07T09:05:56;3.50;;;3.20;;
16994;SDS011;8614;48.522;9.206;2023-05-07T09:08:24;3.23;;;3.03;;
16994;SDS011;8614;48.522;9.206;2023-05-07T09:10:54;6.47;;;4.00;;
16994;SDS011;8614;48.522;9.206;2023-05-07T09:13:22;7.07;;;3.50;;
16994;SDS011;8614;48.522;9.206;2023-05-07T09:15:49;5.87;;;3.80;;
16994;SDS011;8614;48.522;9.206;2023-05-07T09:18:17;3.63;;;3.30;;
16994;SDS011;8614;48.522;9.206;2023-05-07T09:20:46;4.03;;;3.63;;
16994;SDS011;8614;48.522;9.206;2023-05-07T09:23:17;4.03;;;3.63;;
16994;SDS011;8614;48.522;9.206;2023-05-07T09:25:44;4.47;;;3.47;;
16994;SDS011;8614;48.522;9.206;2023-05-07T09:28:24;3.80;;;3.40;;
16994;SDS011;8614;48.522;9.206;2023-05-07T09:30:54;2.90;;;2.70;;
16994;SDS011;8614;48.522;9.206;2023-05-07T09:33:22;3.10;;;2.80;;
16994;SDS011;8614;48.522;9.206;2023-05-07T09:35:53;4.40;;;2.85;;
16994;SDS011;8614;48.522;9.206;2023-05-07T09:38:22;3.73;;;3.20;;
16994;SDS011;8614;48.522;9.206;2023-05-07T09:41:01;3.83;;;3.27;;
16994;SDS011;8614;48.522;9.206;2023-05-07T09:43:32;3.50;;;3.20;;
16994;SDS011;8614;48.522;9.206;2023-05-07T09:48:35;2.90;;;2.70;;
16994;SDS011;8614;48.522;9.206;2023-05-07T09:51:06;3.67;;;3.00;;
16994;SDS011;8614;48.522;9.206;2023-05-07T09:53:42;3.23;;;2.63;;
16994;SDS011;8614;48.522;9.206;2023-05-07T09:56:33;4.67;;;3.10;;
16994;SDS011;8614;48.522;9.206;2023-05-07T10:15:07;14.73;;;6.30;;
16994;SDS011;8614;48.522;9.206;2023-05-07T10:17:37;8.33;;;3.70;;
16994;SDS011;8614;48.522;9.206;2023-05-07T10:20:07;10.47;;;5.00;;
16994;SDS011;8614;48.522;9.206;2023-05-07T10:22:38;3.57;;;3.00;;
16994;SDS011;8614;48.522;9.206;2023-05-07T10:25:09;2.90;;;2.70;;
16994;SDS011;8614;48.522;9.206;2023-05-07T10:27:41;3.10;;;2.57;;
16994;SDS011;8614;48.522;9.206;2023-05-07T10:30:14;3.63;;;2.90;;
16994;SDS011;8614;48.522;9.206;2023-05-07T10:32:49;2.90;;;2.70;;
16994;SDS011;8614;48.522;9.206;2023-05-07T10:35:25;2.73;;;2.50;;
16994;SDS011;8614;48.522;9.206;2023-05-07T10:37:56;3.93;;;2.50;;
16994;SDS011;8614;48.522;9.206;2023-05-07T11:30:05;2.70;;;2.50;;
16994;SDS011;8614;48.522;9.206;2023-05-07T11:32:47;2.77;;;2.57;;
16994;SDS011;8614;48.522;9.206;2023-05-07T11:35:16;2.77;;;2.50;;
16994;SDS011;8614;48.522;9.206;2023-05-07T11:37:47;2.90;;;2.70;;
16994;SDS011;8614;48.522;9.206;2023-05-07T11:40:15;4.40;;;2.70;;
16994;SDS011;8614;48.522;9.206;2023-05-07T11:42:42;3.27;;;2.80;;
16994;SDS011;8614;48.522;9.206;2023-05-07T11:45:10;3.70;;;2.93;;
16994;SDS011;8614;48.522;9.206;2023-05-07T11:47:37;3.93;;;2.70;;
16994;SDS011;8614;48.522;9.206;2023-05-07T11:50:08;3.43;;;2.67;;
16994;SDS011;8614;48.522;9.206;2023-05-07T11:52:36;3.57;;;2.90;;
16994;SDS011;8614;48.522;9.206;2023-05-07T11:55:04;3.37;;;3.07;;
16994;SDS011;8614;48.522;9.206;2023-05-07T11:57:32;5.10;;;3.90;;
16994;SDS011;8614;48.522;9.206;2023-05-07T12:00:00;3.73;;;3.40;;
16994;SDS011;8614;48.522;9.206;2023-05-07T12:02:39;5.90;;;3.67;;
16994;SDS011;8614;48.522;9.206;2023-05-07T12:05:07;3.43;;;2.87;;
16994;SDS011;8614;48.522;9.206;2023-05-07T12:07:34;3.83;;;3.10;;
16994;SDS011;8614;48.522;9.206;2023-05-07T12:10:04;5.70;;;4.90;;
16994;SDS011;8614;48.522;9.206;2023-05-07T12:12:37;2.80;;;2.60;;
16994;SDS011;8614;48.522;9.206;2023-05-07T12:15:07;3.37;;;2.60;;
16994;SDS011;8614;48.522;9.206;2023-05-07T12:17:35;2.97;;;2.67;;
16994;SDS011;8614;48.522;9.206;2023-05-07T12:20:04;2.93;;;2.50;;
16994;SDS011;8614;48.522;9.206;2023-05-07T12:22:32;3.13;;;2.80;;
16994;SDS011;8614;48.522;9.206;2023-05-07T12:24:59;4.20;;;2.77;;
16994;SDS011;8614;48.522;9.206;2023-05-07T12:27:26;3.07;;;2.67;;
16994;SDS011;8614;48.522;9.206;2023-05-07T12:29:52;2.87;;;2.50;;
16994;SDS011;8614;48.522;9.206;2023-05-07T12:32:20;3.60;;;2.63;;
16994;SDS011;8614;48.522;9.206;2023-05-07T12:34:49;4.13;;;3.20;;
16994;SDS011;8614;48.522;9.206;2023-05-07T12:37:23;6.07;;;5.60;;
16994;SDS011;8614;48.522;9.206;2023-05-07T12:40:03;5.10;;;4.67;;
16994;SDS011;8614;48.522;9.206;2023-05-07T12:42:32;5.80;;;5.40;;
16994;SDS011;8614;48.522;9.206;2023-05-07T12:45:07;6.10;;;5.70;;
16994;SDS011;8614;48.522;9.206;2023-05-07T12:47:34;3.00;;;2.70;;
16994;SDS011;8614;48.522;9.206;2023-05-07T12:50:04;5.50;;;5.10;;
16994;SDS011;8614;48.522;9.206;2023-05-07T12:52:33;6.30;;;5.90;;
16994;SDS011;8614;48.522;9.206;2023-05-07T12:55:04;4.63;;;4.20;;
16994;SDS011;8614;48.522;9.206;2023-05-07T12:57:31;3.80;;;3.60;;
16994;SDS011;8614;48.522;9.206;2023-05-07T13:00:04;3.97;;;3.67;;
16994;SDS011;8614;48.522;9.206;2023-05-07T13:02:58;4.67;;;3.27;;
16994;SDS011;8614;48.522;9.206;2023-05-07T13:05:38;7.47;;;6.97;;
16994;SDS011;8614;48.522;9.206;2023-05-07T13:15:21;8.37;;;7.80;;
16994;SDS011;8614;48.522;9.206;2023-05-07T13:17:58;7.70;;;7.00;;
16994;SDS011;8614;48.522;9.206;2023-05-07T13:20:37;8.83;;;5.03;;
16994;SDS011;8614;48.522;9.206;2023-05-07T13:27:13;5.67;;;4.60;;
16994;SDS011;8614;48.522;9.206;2023-05-07T13:29:43;6.47;;;5.97;;
16994;SDS011;8614;48.522;9.206;2023-05-07T13:32:10;4.77;;;4.30;;
16994;SDS011;8614;48.522;9.206;2023-05-07T13:34:37;8.83;;;5.00;;
16994;SDS011;8614;48.522;9.206;2023-05-07T13:37:04;6.30;;;4.07;;
16994;SDS011;8614;48.522;9.206;2023-05-07T13:39:32;4.70;;;4.17;;
16994;SDS011;8614;48.522;9.206;2023-05-07T13:42:09;5.83;;;4.03;;
16994;SDS011;8614;48.522;9.206;2023-05-07T13:44:36;4.53;;;4.00;;
16994;SDS011;8614;48.522;9.206;2023-05-07T13:47:06;6.70;;;4.33;;
16994;SDS011;8614;48.522;9.206;2023-05-07T13:49:33;8.50;;;5.83;;
16994;SDS011;8614;48.522;9.206;2023-05-07T13:52:00;5.90;;;5.07;;
16994;SDS011;8614;48.522;9.206;2023-05-07T13:54:30;9.97;;;7.90;;
16994;SDS011;8614;48.522;9.206;2023-05-07T13:56:57;6.47;;;4.37;;
16994;SDS011;8614;48.522;9.206;2023-05-07T13:59:25;5.63;;;3.90;;
16994;SDS011;8614;48.522;9.206;2023-05-07T14:01:52;6.50;;;5.27;;
16994;SDS011;8614;48.522;9.206;2023-05-07T14:04:19;11.77;;;7.50;;
16994;SDS011;8614;48.522;9.206;2023-05-07T14:06:46;9.07;;;8.40;;
16994;SDS011;8614;48.522;9.206;2023-05-07T14:09:13;9.57;;;8.67;;
16994;SDS011;8614;48.522;9.206;2023-05-07T14:11:40;10.43;;;9.63;;
16994;SDS011;8614;48.522;9.206;2023-05-07T14:14:08;9.20;;;8.40;;
16994;SDS011;8614;48.522;9.206;2023-05-07T14:16:37;10.43;;;9.43;;
16994;SDS011;8614;48.522;9.206;2023-05-07T14:19:04;5.03;;;4.13;;
16994;SDS011;8614;48.522;9.206;2023-05-07T14:21:32;6.63;;;5.47;;
16994;SDS011;8614;48.522;9.206;2023-05-07T14:24:02;10.10;;;8.97;;
16994;SDS011;8614;48.522;9.206;2023-05-07T14:26:30;6.70;;;4.40;;
16994;SDS011;8614;48.522;9.206;2023-05-07T14:28:57;5.70;;;4.00;;
16994;SDS011;8614;48.522;9.206;2023-05-07T14:31:24;6.67;;;4.23;;
16994;SDS011;8614;48.522;9.206;2023-05-07T14:33:53;6.03;;;4.10;;
16994;SDS011;8614;48.522;9.206;2023-05-07T14:36:20;6.30;;;4.50;;
16994;SDS011;8614;48.522;9.206;2023-05-07T14:38:48;7.10;;;6.40;;
16994;SDS011;8614;48.522;9.206;2023-05-07T14:41:23;4.70;;;4.10;;
16994;SDS011;8614;48.522;9.206;2023-05-07T14:44:08;5.20;;;3.87;;
16994;SDS011;8614;48.522;9.206;2023-05-07T14:57:41;8.07;;;7.23;;
16994;SDS011;8614;48.522;9.206;2023-05-07T15:00:08;8.73;;;8.03;;
16994;SDS011;8614;48.522;9.206;2023-05-07T15:02:36;6.60;;;6.00;;
16994;SDS011;8614;48.522;9.206;2023-05-07T15:05:03;7.80;;;5.30;;
16994;SDS011;8614;48.522;9.206;2023-05-07T15:07:31;6.50;;;5.90;;
16994;SDS011;8614;48.522;9.206;2023-05-07T15:09:59;4.37;;;3.87;;
16994;SDS011;8614;48.522;9.206;2023-05-07T15:12:26;7.87;;;6.30;;
16994;SDS011;8614;48.522;9.206;2023-05-07T15:14:54;4.97;;;4.57;;
16994;SDS011;8614;48.522;9.206;2023-05-07T15:17:21;7.90;;;7.20;;
16994;SDS011;8614;48.522;9.206;2023-05-07T15:19:48;8.97;;;8.30;;
16994;SDS011;8614;48.522;9.206;2023-05-07T15:22:15;5.00;;;4.00;;
16994;SDS011;8614;48.522;9.206;2023-05-07T15:24:41;3.70;;;3.30;;
16994;SDS011;8614;48.522;9.206;2023-05-07T15:27:09;6.83;;;6.10;;
16994;SDS011;8614;48.522;9.206;2023-05-07T15:29:36;5.83;;;5.33;;
16994;SDS011;8614;48.522;9.206;2023-05-07T15:32:04;5.70;;;5.10;;
16994;SDS011;8614;48.522;9.206;2023-05-07T15:34:31;5.67;;;5.17;;
16994;SDS011;8614;48.522;9.206;2023-05-07T15:37:03;5.77;;;5.27;;
16994;SDS011;8614;48.522;9.206;2023-05-07T15:39:30;5.60;;;5.10;;
16994;SDS011;8614;48.522;9.206;2023-05-07T15:41:57;7.00;;;6.50;;
16994;SDS011;8614;48.522;9.206;2023-05-07T15:44:24;7.47;;;5.23;;
16994;SDS011;8614;48.522;9.206;2023-05-07T15:46:59;3.80;;;3.30;;
16994;SDS011;8614;48.522;9.206;2023-05-07T15:49:27;3.40;;;3.10;;
16994;SDS011;8614;48.522;9.206;2023-05-07T15:51:56;5.20;;;4.70;;
16994;SDS011;8614;48.522;9.206;2023-05-07T15:54:23;4.63;;;4.23;;
16994;SDS011;8614;48.522;9.206;2023-05-07T15:56:54;4.37;;;3.97;;
16994;SDS011;8614;48.522;9.206;2023-05-07T15:59:21;5.10;;;4.70;;
16994;SDS011;8614;48.522;9.206;2023-05-07T16:01:48;4.17;;;3.63;;
16994;SDS011;8614;48.522;9.206;2023-05-07T16:04:15;6.13;;;5.60;;
16994;SDS011;8614;48.522;9.206;2023-05-07T16:06:44;5.60;;;5.10;;
16994;SDS011;8614;48.522;9.206;2023-05-07T16:09:11;6.50;;;3.20;;
16994;SDS011;8614;48.522;9.206;2023-05-07T16:14:34;3.70;;;3.40;;
16994;SDS011;8614;48.522;9.206;2023-05-07T16:17:01;4.87;;;3.40;;
16994;SDS011;8614;48.522;9.206;2023-05-07T16:19:28;4.83;;;4.50;;
16994;SDS011;8614;48.522;9.206;2023-05-07T16:21:56;3.60;;;3.30;;
16994;SDS011;8614;48.522;9.206;2023-05-07T16:24:23;3.10;;;2.87;;
16994;SDS011;8614;48.522;9.206;2023-05-07T16:26:50;3.30;;;3.00;;
16994;SDS011;8614;48.522;9.206;2023-05-07T16:29:23;4.43;;;3.40;;
16994;SDS011;8614;48.522;9.206;2023-05-07T16:32:33;6.37;;;3.77;;
16994;SDS011;8614;48.522;9.206;2023-05-07T16:35:00;4.90;;;3.47;;
16994;SDS011;8614;48.522;9.206;2023-05-07T16:37:28;5.40;;;3.40;;
16994;SDS011;8614;48.522;9.206;2023-05-07T16:39:55;6.53;;;5.90;;
16994;SDS011;8614;48.522;9.206;2023-05-07T16:42:24;6.50;;;5.90;;
16994;SDS011;8614;48.522;9.206;2023-05-07T16:44:51;6.13;;;5.53;;